createdAt,value
2022-11-12T00:00:52.890Z,3.27
2022-11-12T00:03:20.328Z,3.00
2022-11-12T00:05:46.940Z,3.43
2022-11-12T00:08:13.571Z,2.47
2022-11-12T00:10:40.047Z,3.87
2022-11-12T00:13:07.641Z,2.67
2022-11-12T00:15:34.204Z,2.47
2022-11-12T00:18:00.684Z,2.73
2022-11-12T00:20:27.155Z,2.67
2022-11-12T00:22:53.663Z,2.90
2022-11-12T00:25:20.118Z,3.40
2022-11-12T00:27:46.551Z,2.67
2022-11-12T00:30:13.483Z,3.20
2022-11-12T00:32:39.918Z,2.80
2022-11-12T00:35:12.428Z,3.70
2022-11-12T00:37:40.394Z,2.70
2022-11-12T00:40:07.990Z,2.67
2022-11-12T00:42:34.432Z,3.13
2022-11-12T00:45:00.977Z,3.43
2022-11-12T00:47:27.493Z,3.17
2022-11-12T00:49:53.918Z,3.10
2022-11-12T00:52:20.413Z,3.33
2022-11-12T00:54:46.921Z,3.10
2022-11-12T00:57:13.445Z,2.90
2022-11-12T00:59:40.065Z,2.67
2022-11-12T01:02:06.586Z,2.87
2022-11-12T01:04:33.211Z,2.93
2022-11-12T01:07:00.071Z,2.63
2022-11-12T01:09:26.607Z,2.70
2022-11-12T01:11:53.314Z,3.80
2022-11-12T01:14:19.806Z,3.07
2022-11-12T01:16:46.359Z,2.73
2022-11-12T01:19:13.825Z,2.60
2022-11-12T01:21:43.195Z,3.20
2022-11-12T01:24:10.320Z,3.00
2022-11-12T01:26:37.470Z,2.23
2022-11-12T01:29:04.580Z,2.97
2022-11-12T01:31:33.851Z,2.80
2022-11-12T01:34:02.522Z,3.10
2022-11-12T01:36:33.699Z,2.67
2022-11-12T01:39:00.406Z,2.70
2022-11-12T01:41:32.839Z,2.83
2022-11-12T01:44:11.402Z,2.70
2022-11-12T01:46:47.321Z,2.50
2022-11-12T01:49:27.346Z,2.40
2022-11-12T01:51:54.953Z,2.77
2022-11-12T01:54:21.930Z,2.67
2022-11-12T01:56:50.315Z,2.50
2022-11-12T01:59:28.175Z,3.43
2022-11-12T02:01:54.713Z,3.00
2022-11-12T02:04:21.870Z,2.93
2022-11-12T02:06:48.933Z,3.00
2022-11-12T02:09:15.583Z,2.70
2022-11-12T02:11:42.058Z,2.50
2022-11-12T02:14:08.732Z,3.00
2022-11-12T02:16:38.809Z,3.10
2022-11-12T02:19:07.609Z,2.40
2022-11-12T02:21:34.877Z,2.53
2022-11-12T02:24:12.058Z,2.70
2022-11-12T02:26:42.020Z,2.50
2022-11-12T02:29:08.976Z,2.30
2022-11-12T02:31:36.065Z,2.63
2022-11-12T02:34:02.878Z,2.40
2022-11-12T02:36:30.136Z,2.87
2022-11-12T02:38:56.819Z,3.00
2022-11-12T02:41:23.851Z,2.70
2022-11-12T02:43:50.343Z,2.90
2022-11-12T02:46:16.958Z,2.50
2022-11-12T02:48:44.339Z,2.47
2022-11-12T02:51:10.905Z,2.17
2022-11-12T02:53:37.441Z,2.07
2022-11-12T02:56:04.406Z,3.00
2022-11-12T02:58:30.981Z,2.80
2022-11-12T03:00:57.781Z,2.37
2022-11-12T03:03:24.299Z,2.60
2022-11-12T03:05:59.323Z,2.70
2022-11-12T03:08:26.259Z,2.20
2022-11-12T03:10:53.356Z,2.93
2022-11-12T03:13:20.692Z,2.40
2022-11-12T03:15:47.374Z,2.60
2022-11-12T03:18:13.916Z,2.17
2022-11-12T03:20:40.989Z,2.70
2022-11-12T03:23:10.153Z,2.77
2022-11-12T03:25:37.202Z,2.30
2022-11-12T03:28:09.739Z,2.40
2022-11-12T03:30:38.856Z,2.53
2022-11-12T03:33:06.618Z,2.47
2022-11-12T03:35:33.768Z,3.10
2022-11-12T03:38:00.933Z,3.07
2022-11-12T03:40:28.132Z,3.07
2022-11-12T03:42:54.602Z,2.73
2022-11-12T03:45:22.844Z,2.50
2022-11-12T03:47:51.575Z,2.90
2022-11-12T03:50:19.530Z,2.37
2022-11-12T03:52:51.183Z,2.40
2022-11-12T03:55:20.634Z,2.20
2022-11-12T03:57:51.049Z,2.90
2022-11-12T04:00:18.605Z,2.80
2022-11-12T04:02:45.486Z,1.87
2022-11-12T04:05:30.583Z,2.00
2022-11-12T04:08:19.916Z,3.17
2022-11-12T04:10:46.630Z,3.00
2022-11-12T04:13:28.396Z,2.37
2022-11-12T04:16:13.370Z,2.67
2022-11-12T04:18:58.886Z,2.43
2022-11-12T04:21:50.745Z,2.60
2022-11-12T04:24:47.555Z,2.77
2022-11-12T04:27:19.968Z,2.30
2022-11-12T04:30:05.878Z,2.83
2022-11-12T04:32:34.218Z,2.60
2022-11-12T04:35:01.048Z,3.63
2022-11-12T04:37:29.384Z,3.20
2022-11-12T04:39:55.890Z,2.53
2022-11-12T04:43:00.763Z,2.00
2022-11-12T04:45:27.221Z,2.43
2022-11-12T04:47:53.791Z,2.43
2022-11-12T04:50:20.374Z,2.23
2022-11-12T04:52:47.101Z,2.60
2022-11-12T04:55:13.606Z,2.00
2022-11-12T04:57:40.448Z,2.13
2022-11-12T05:00:07.468Z,2.50
2022-11-12T05:02:33.975Z,2.80
2022-11-12T05:05:00.486Z,2.50
2022-11-12T05:07:26.975Z,2.43
2022-11-12T05:09:53.486Z,2.53
2022-11-12T05:12:19.911Z,2.47
2022-11-12T05:14:46.426Z,2.43
2022-11-12T05:17:12.873Z,2.13
2022-11-12T05:19:39.388Z,2.13
2022-11-12T05:22:05.864Z,2.57
2022-11-12T05:24:42.598Z,2.40
2022-11-12T05:27:14.382Z,2.53
2022-11-12T05:29:40.993Z,2.73
2022-11-12T05:32:09.109Z,1.90
2022-11-12T05:34:35.628Z,2.50
2022-11-12T05:37:03.112Z,2.63
2022-11-12T05:39:29.776Z,2.53
2022-11-12T05:42:12.541Z,2.43
2022-11-12T05:44:40.150Z,2.23
2022-11-12T05:47:06.619Z,2.33
2022-11-12T05:49:33.199Z,2.10
2022-11-12T05:51:59.629Z,2.37
2022-11-12T05:54:26.211Z,1.87
2022-11-12T05:56:53.608Z,2.70
2022-11-12T05:59:20.142Z,1.97
2022-11-12T06:01:46.736Z,2.57
2022-11-12T06:04:16.656Z,2.57
2022-11-12T06:06:43.837Z,2.23
2022-11-12T06:09:10.586Z,2.10
2022-11-12T06:11:37.331Z,2.60
2022-11-12T06:14:04.163Z,2.53
2022-11-12T06:16:31.295Z,1.90
2022-11-12T06:18:57.877Z,2.33
2022-11-12T06:21:24.686Z,2.57
2022-11-12T06:24:00.354Z,2.53
2022-11-12T06:26:28.530Z,2.40
2022-11-12T06:28:55.856Z,2.97
2022-11-12T06:31:22.555Z,3.27
2022-11-12T06:33:50.273Z,3.43
2022-11-12T06:36:18.972Z,3.07
2022-11-12T06:38:45.662Z,3.00
2022-11-12T06:41:12.931Z,2.70
2022-11-12T06:43:39.893Z,3.30
2022-11-12T06:46:12.680Z,2.90
2022-11-12T06:48:39.481Z,2.67
2022-11-12T06:51:19.829Z,2.40
2022-11-12T06:53:46.552Z,3.37
2022-11-12T06:56:13.462Z,2.80
2022-11-12T06:58:40.102Z,2.30
2022-11-12T07:01:12.549Z,2.60
2022-11-12T07:03:41.580Z,2.87
2022-11-12T07:06:10.277Z,3.80
2022-11-12T07:08:37.144Z,2.60
2022-11-12T07:11:04.179Z,2.50
2022-11-12T07:13:32.504Z,2.27
2022-11-12T07:16:00.725Z,2.87
2022-11-12T07:18:28.514Z,3.07
2022-11-12T07:21:08.684Z,2.50
2022-11-12T07:23:36.394Z,3.40
2022-11-12T07:26:14.167Z,2.60
2022-11-12T07:28:40.855Z,2.40
2022-11-12T07:31:10.485Z,3.10
2022-11-12T07:33:37.169Z,3.87
2022-11-12T07:36:12.277Z,2.87
2022-11-12T07:38:40.401Z,3.13
2022-11-12T07:41:13.086Z,3.57
2022-11-12T07:43:40.203Z,4.20
2022-11-12T07:46:11.015Z,9.43
2022-11-12T07:48:38.403Z,12.50
2022-11-12T07:51:12.724Z,9.50
2022-11-12T07:53:39.734Z,3.87
2022-11-12T07:56:06.648Z,3.50
2022-11-12T07:58:34.639Z,2.70
2022-11-12T08:01:31.444Z,2.83
2022-11-12T08:03:59.049Z,3.00
2022-11-12T08:06:25.816Z,2.93
2022-11-12T08:08:53.237Z,2.63
2022-11-12T08:11:19.799Z,2.57
2022-11-12T08:13:46.250Z,2.57
2022-11-12T08:16:13.072Z,3.37
2022-11-12T08:18:39.620Z,2.60
2022-11-12T08:21:07.938Z,3.00
2022-11-12T08:23:35.239Z,2.70
2022-11-12T08:26:03.656Z,9.30
2022-11-12T08:28:33.082Z,5.43
2022-11-12T08:31:13.166Z,3.17
2022-11-12T08:33:40.069Z,8.67
2022-11-12T08:36:08.534Z,8.07
2022-11-12T08:38:35.740Z,25.70
2022-11-12T08:41:07.636Z,17.03
2022-11-12T08:43:34.766Z,7.17
2022-11-12T08:46:02.212Z,5.67
2022-11-12T08:48:30.272Z,5.80
2022-11-12T08:50:57.277Z,17.13
2022-11-12T08:53:25.006Z,13.60
2022-11-12T08:55:55.889Z,6.40
2022-11-12T08:58:23.455Z,8.43
2022-11-12T09:00:50.913Z,5.90
2022-11-12T09:03:19.622Z,5.83
2022-11-12T09:05:46.330Z,5.40
2022-11-12T09:08:16.099Z,6.03
2022-11-12T09:10:42.890Z,5.63
2022-11-12T09:13:09.617Z,6.53
2022-11-12T09:15:38.054Z,10.70
2022-11-12T09:18:07.734Z,8.80
2022-11-12T09:20:34.223Z,5.83
2022-11-12T09:23:02.658Z,6.17
2022-11-12T09:25:29.678Z,5.80
2022-11-12T09:27:56.179Z,9.03
2022-11-12T09:30:22.699Z,7.80
2022-11-12T09:32:49.326Z,8.60
2022-11-12T09:35:15.831Z,9.57
2022-11-12T09:37:42.418Z,15.07
2022-11-12T09:40:17.546Z,7.63
2022-11-12T09:42:45.403Z,11.17
2022-11-12T09:45:15.014Z,10.30
2022-11-12T09:47:46.116Z,5.17
2022-11-12T09:50:22.757Z,4.60
2022-11-12T09:52:56.542Z,5.33
2022-11-12T09:55:30.728Z,9.87
2022-11-12T09:57:57.492Z,28.13
2022-11-12T10:00:24.028Z,19.10
2022-11-12T10:03:16.187Z,5.73
2022-11-12T10:05:53.623Z,5.90
2022-11-12T10:08:29.444Z,5.77
2022-11-12T10:11:20.398Z,5.17
2022-11-12T10:14:08.921Z,6.40
2022-11-12T10:16:55.266Z,5.13
2022-11-12T10:19:27.261Z,5.60
2022-11-12T10:22:18.439Z,6.00
2022-11-12T10:24:45.199Z,5.77
2022-11-12T10:27:28.461Z,5.73
2022-11-12T10:30:07.062Z,5.60
2022-11-12T10:32:34.468Z,6.13
2022-11-12T10:35:00.916Z,6.77
2022-11-12T10:37:46.582Z,5.60
2022-11-12T10:40:22.681Z,5.70
2022-11-12T10:42:56.427Z,6.80
2022-11-12T10:45:23.621Z,5.90
2022-11-12T10:47:50.742Z,6.53
2022-11-12T10:50:30.228Z,6.07
2022-11-12T10:52:57.924Z,5.77
2022-11-12T10:55:30.184Z,5.97
2022-11-12T10:58:13.803Z,6.87
2022-11-12T11:01:00.939Z,5.97
2022-11-12T11:03:31.249Z,8.10
2022-11-12T11:06:01.551Z,6.40
2022-11-12T11:08:37.818Z,5.80
2022-11-12T11:11:10.478Z,5.90
2022-11-12T11:13:36.907Z,4.83
2022-11-12T11:16:05.955Z,4.70
2022-11-12T11:18:34.493Z,5.30
2022-11-12T11:21:04.382Z,5.10
2022-11-12T11:23:42.871Z,4.87
2022-11-12T11:26:31.249Z,4.47
2022-11-12T11:28:57.690Z,6.07
2022-11-12T11:31:54.685Z,5.40
2022-11-12T11:34:24.037Z,5.50
2022-11-12T11:37:29.247Z,4.53
2022-11-12T11:40:14.549Z,5.10
2022-11-12T11:42:43.546Z,5.10
2022-11-12T11:45:17.446Z,5.13
2022-11-12T11:48:31.771Z,4.50
2022-11-12T11:51:24.812Z,4.70
2022-11-12T11:54:10.600Z,4.43
2022-11-12T11:56:40.747Z,4.40
2022-11-12T11:59:28.694Z,4.97
2022-11-12T12:02:25.574Z,5.37
2022-11-12T12:05:02.957Z,6.53
2022-11-12T12:07:39.250Z,5.70
2022-11-12T12:10:11.750Z,5.17
2022-11-12T12:13:07.613Z,4.83
2022-11-12T12:15:45.608Z,6.27
2022-11-12T12:18:26.785Z,6.17
2022-11-12T12:21:00.719Z,7.03
2022-11-12T12:23:49.350Z,5.60
2022-11-12T12:26:40.469Z,4.73
2022-11-12T12:29:17.692Z,4.77
2022-11-12T12:32:04.459Z,5.27
2022-11-12T12:34:33.916Z,5.30
2022-11-12T12:37:12.767Z,5.03
2022-11-12T12:40:09.483Z,4.77
2022-11-12T12:42:42.114Z,4.63
2022-11-12T12:45:31.963Z,38.47
2022-11-12T12:48:04.741Z,7.20
2022-11-12T12:50:31.271Z,5.40
2022-11-12T12:53:02.660Z,5.67
2022-11-12T12:55:50.245Z,5.13
2022-11-12T12:58:41.440Z,5.97
2022-11-12T13:01:19.968Z,5.47
2022-11-12T13:04:04.486Z,6.10
2022-11-12T13:06:33.991Z,5.30
2022-11-12T13:09:12.496Z,6.77
2022-11-12T13:12:00.692Z,5.13
2022-11-12T13:14:36.104Z,6.53
2022-11-12T13:17:08.447Z,6.00
2022-11-12T13:19:43.817Z,6.80
2022-11-12T13:22:19.405Z,6.40
2022-11-12T13:25:04.662Z,9.00
2022-11-12T13:27:40.333Z,5.30
2022-11-12T13:30:13.894Z,5.20
2022-11-12T13:32:54.302Z,5.73
2022-11-12T13:35:20.751Z,5.70
2022-11-12T13:38:09.008Z,4.43
2022-11-12T13:40:50.654Z,5.60
2022-11-12T13:43:25.117Z,4.70
2022-11-12T13:45:56.002Z,5.73
2022-11-12T13:48:30.047Z,7.77
2022-11-12T13:51:01.598Z,7.60
2022-11-12T13:53:30.845Z,7.90
2022-11-12T13:55:57.586Z,7.90
2022-11-12T13:58:34.658Z,7.10
2022-11-12T14:01:04.081Z,5.53
2022-11-12T14:03:51.152Z,5.07
2022-11-12T14:06:22.454Z,4.30
2022-11-12T14:09:10.801Z,5.43
2022-11-12T14:11:51.782Z,4.50
2022-11-12T14:14:36.931Z,4.73
2022-11-12T14:17:22.498Z,4.20
2022-11-12T14:20:17.111Z,4.33
2022-11-12T14:22:44.933Z,4.90
2022-11-12T14:25:19.201Z,6.70
2022-11-12T14:27:47.176Z,7.70
2022-11-12T14:30:17.981Z,8.13
2022-11-12T14:32:46.523Z,6.87
2022-11-12T14:35:19.809Z,6.20
2022-11-12T14:37:52.735Z,4.90
2022-11-12T14:40:19.519Z,4.90
2022-11-12T14:42:46.261Z,4.73
2022-11-12T14:45:17.116Z,6.57
2022-11-12T14:47:44.865Z,5.10
2022-11-12T14:50:18.069Z,5.27
2022-11-12T14:52:47.789Z,3.80
2022-11-12T14:55:18.596Z,4.13
2022-11-12T14:57:45.171Z,4.17
2022-11-12T15:00:18.915Z,4.10
2022-11-12T15:02:55.762Z,4.77
2022-11-12T15:05:27.464Z,5.60
2022-11-12T15:08:03.086Z,5.50
2022-11-12T15:10:35.175Z,7.23
2022-11-12T15:13:13.828Z,7.97
2022-11-12T15:16:05.221Z,6.93
2022-11-12T15:18:32.750Z,7.80
2022-11-12T15:21:05.238Z,10.00
2022-11-12T15:23:31.740Z,7.07
2022-11-12T15:25:59.204Z,7.97
2022-11-12T15:28:26.620Z,6.53
2022-11-12T15:31:07.178Z,6.80
2022-11-12T15:33:33.712Z,6.20
2022-11-12T15:36:00.959Z,6.70
2022-11-12T15:38:31.803Z,6.70
2022-11-12T15:40:59.843Z,5.30
2022-11-12T15:43:29.127Z,5.83
2022-11-12T15:45:56.190Z,5.93
2022-11-12T15:48:23.165Z,7.03
2022-11-12T15:50:50.151Z,6.07
2022-11-12T15:53:16.815Z,6.13
2022-11-12T15:55:44.071Z,6.07
2022-11-12T15:58:16.974Z,6.60
2022-11-12T16:00:43.546Z,6.77
2022-11-12T16:03:17.468Z,6.13
2022-11-12T16:05:44.575Z,6.70
2022-11-12T16:08:11.312Z,5.77
2022-11-12T16:10:42.479Z,6.60
2022-11-12T16:13:15.774Z,6.47
2022-11-12T16:15:42.215Z,6.30
2022-11-12T16:18:11.583Z,6.10
2022-11-12T16:20:38.574Z,5.53
2022-11-12T16:23:05.135Z,7.30
2022-11-12T16:25:33.967Z,6.70
2022-11-12T16:28:01.308Z,6.77
2022-11-12T16:30:31.895Z,5.90
2022-11-12T16:32:59.466Z,5.97
2022-11-12T16:35:27.241Z,7.07
2022-11-12T16:37:54.846Z,6.60
2022-11-12T16:40:26.313Z,6.97
2022-11-12T16:42:53.058Z,7.33
2022-11-12T16:45:22.328Z,8.03
2022-11-12T16:47:50.866Z,6.93
2022-11-12T16:50:21.693Z,7.63
2022-11-12T16:52:48.729Z,6.83
2022-11-12T16:55:15.822Z,7.00
2022-11-12T16:57:42.975Z,7.83
2022-11-12T17:00:17.567Z,7.33
2022-11-12T17:02:47.255Z,6.63
2022-11-12T17:05:23.029Z,10.13
2022-11-12T17:07:50.332Z,8.40
2022-11-12T17:10:17.150Z,8.53
2022-11-12T17:12:43.641Z,7.90
2022-11-12T17:15:10.395Z,7.40
2022-11-12T17:17:36.835Z,7.00
2022-11-12T17:20:04.169Z,8.47
2022-11-12T17:22:31.350Z,7.10
2022-11-12T17:24:57.796Z,8.23
2022-11-12T17:27:24.243Z,7.17
2022-11-12T17:29:50.665Z,6.80
2022-11-12T17:32:17.232Z,7.13
2022-11-12T17:34:43.803Z,7.23
2022-11-12T17:37:10.314Z,9.90
2022-11-12T17:39:36.805Z,9.97
2022-11-12T17:42:03.413Z,12.57
2022-11-12T17:44:29.902Z,10.63
2022-11-12T17:46:56.668Z,7.97
2022-11-12T17:49:23.113Z,13.00
2022-11-12T17:51:49.632Z,12.30
2022-11-12T17:54:16.103Z,11.60
2022-11-12T17:56:42.660Z,13.53
2022-11-12T17:59:09.139Z,11.50
2022-11-12T18:01:35.731Z,9.60
2022-11-12T18:04:02.260Z,10.00
2022-11-12T18:06:30.582Z,10.67
2022-11-12T18:08:59.452Z,9.40
2022-11-12T18:11:27.900Z,9.43
2022-11-12T18:13:54.680Z,7.80
2022-11-12T18:16:28.284Z,9.37
2022-11-12T18:18:56.009Z,7.43
2022-11-12T18:21:23.712Z,8.37
2022-11-12T18:23:50.383Z,8.50
2022-11-12T18:26:18.920Z,8.23
2022-11-12T18:28:51.284Z,7.67
2022-11-12T18:31:17.895Z,7.53
2022-11-12T18:33:44.422Z,8.67
2022-11-12T18:36:13.213Z,10.70
2022-11-12T18:38:39.707Z,9.53
2022-11-12T18:41:09.185Z,11.03
2022-11-12T18:43:36.258Z,11.40
2022-11-12T18:46:03.080Z,13.50
2022-11-12T18:48:31.047Z,18.00
2022-11-12T18:51:02.669Z,12.93
2022-11-12T18:53:30.192Z,12.07
2022-11-12T18:56:01.197Z,11.90
2022-11-12T18:58:34.670Z,13.30
2022-11-12T19:01:06.899Z,17.00
2022-11-12T19:03:33.375Z,19.87
2022-11-12T19:06:00.880Z,22.23
2022-11-12T19:08:27.759Z,18.70
2022-11-12T19:10:58.533Z,18.23
2022-11-12T19:13:25.522Z,18.27
2022-11-12T19:15:52.785Z,19.40
2022-11-12T19:18:19.428Z,17.00
2022-11-12T19:20:47.518Z,16.00
2022-11-12T19:23:14.246Z,14.40
2022-11-12T19:25:40.729Z,13.90
2022-11-12T19:28:07.197Z,13.50
2022-11-12T19:30:33.700Z,12.33
2022-11-12T19:33:00.187Z,12.00
2022-11-12T19:35:26.876Z,13.40
2022-11-12T19:37:53.430Z,14.50
2022-11-12T19:40:20.028Z,13.63
2022-11-12T19:42:48.009Z,12.73
2022-11-12T19:45:14.605Z,13.60
2022-11-12T19:47:41.162Z,14.43
2022-11-12T19:50:08.165Z,13.50
2022-11-12T19:52:34.673Z,14.70
2022-11-12T19:55:01.236Z,13.40
2022-11-12T19:57:29.096Z,13.90
2022-11-12T19:59:55.603Z,14.33
2022-11-12T20:02:22.049Z,14.10
2022-11-12T20:04:48.748Z,12.07
2022-11-12T20:07:15.418Z,13.27
2022-11-12T20:09:42.571Z,13.03
2022-11-12T20:12:09.173Z,12.60
2022-11-12T20:14:35.659Z,11.50
2022-11-12T20:17:02.235Z,13.67
2022-11-12T20:19:28.763Z,12.10
2022-11-12T20:21:55.257Z,11.90
2022-11-12T20:24:21.791Z,10.97
2022-11-12T20:26:48.410Z,12.80
2022-11-12T20:29:14.923Z,10.73
2022-11-12T20:31:42.043Z,12.20
2022-11-12T20:34:08.734Z,10.57
2022-11-12T20:36:35.249Z,11.60
2022-11-12T20:39:03.101Z,11.00
2022-11-12T20:41:29.623Z,10.90
2022-11-12T20:43:58.138Z,11.90
2022-11-12T20:46:25.629Z,10.83
2022-11-12T20:48:54.085Z,12.90
2022-11-12T20:51:25.051Z,14.10
2022-11-12T20:53:59.933Z,13.97
2022-11-12T20:56:29.209Z,13.20
2022-11-12T20:58:55.908Z,15.00
2022-11-12T21:01:23.407Z,17.20
2022-11-12T21:03:50.155Z,16.33
2022-11-12T21:06:22.058Z,12.90
2022-11-12T21:08:48.618Z,12.60
2022-11-12T21:11:17.795Z,13.50
2022-11-12T21:13:44.294Z,11.87
2022-11-12T21:16:12.278Z,11.10
2022-11-12T21:18:39.059Z,11.80
2022-11-12T21:21:09.701Z,12.90
2022-11-12T21:23:38.123Z,12.43
2022-11-12T21:26:06.878Z,12.70
2022-11-12T21:28:36.885Z,14.00
2022-11-12T21:31:08.511Z,12.57
2022-11-12T21:33:35.578Z,11.83
2022-11-12T21:36:03.891Z,11.97
2022-11-12T21:38:30.947Z,12.67
2022-11-12T21:41:11.487Z,13.33
2022-11-12T21:43:39.207Z,13.60
2022-11-12T21:46:30.952Z,12.23
2022-11-12T21:48:57.807Z,12.27
2022-11-12T21:51:26.462Z,14.27
2022-11-12T21:53:57.819Z,14.00
2022-11-12T21:56:25.252Z,11.30
2022-11-12T21:58:53.711Z,11.20
2022-11-12T22:01:25.307Z,9.83
2022-11-12T22:03:53.211Z,8.97
2022-11-12T22:06:20.816Z,8.87
2022-11-12T22:08:47.448Z,6.83
2022-11-12T22:11:15.761Z,4.97
2022-11-12T22:13:42.580Z,6.50
2022-11-12T22:16:20.514Z,7.07
2022-11-12T22:18:49.190Z,6.30
2022-11-12T22:21:18.788Z,6.80
2022-11-12T22:23:45.568Z,5.60
2022-11-12T22:26:17.135Z,6.50
2022-11-12T22:28:43.917Z,7.83
2022-11-12T22:31:15.686Z,7.63
2022-11-12T22:33:42.494Z,7.67
2022-11-12T22:36:14.455Z,8.40
2022-11-12T22:38:43.257Z,9.50
2022-11-12T22:41:29.824Z,9.57
2022-11-12T22:43:58.156Z,10.30
2022-11-12T22:46:27.136Z,8.93
2022-11-12T22:48:53.739Z,10.03
2022-11-12T22:51:22.490Z,9.93
2022-11-12T22:53:56.418Z,8.33
2022-11-12T22:56:23.980Z,11.60
2022-11-12T22:58:51.359Z,10.87
2022-11-12T23:01:26.573Z,12.20
2022-11-12T23:03:55.912Z,11.93
2022-11-12T23:06:22.879Z,11.93
2022-11-12T23:08:49.621Z,11.57
2022-11-12T23:11:18.016Z,11.00
2022-11-12T23:13:44.635Z,10.47
2022-11-12T23:16:17.021Z,12.20
2022-11-12T23:18:43.740Z,11.07
2022-11-12T23:21:13.389Z,10.00
2022-11-12T23:23:40.275Z,12.57
2022-11-12T23:26:16.146Z,10.87
2022-11-12T23:28:42.815Z,11.37
2022-11-12T23:31:14.496Z,10.70
2022-11-12T23:33:48.966Z,11.57
2022-11-12T23:36:15.655Z,15.13
2022-11-12T23:38:42.825Z,12.50
2022-11-12T23:41:15.102Z,13.63
2022-11-12T23:43:41.911Z,11.40
2022-11-12T23:46:09.069Z,12.60
2022-11-12T23:48:35.607Z,12.57
2022-11-12T23:51:11.029Z,12.40
2022-11-12T23:53:38.052Z,15.40
2022-11-12T23:56:06.178Z,17.10
2022-11-12T23:58:32.973Z,15.10
